CheckWX is a tool to help pilots better visualize weather data.  It is not intended as a substitute for an official pre-flight weather briefing.

13:02:12 UTC

KEZZ METAR
Cameron Memorial Airport
Cameron, Missouri, USA
Current

27 mins ago

KEZZ 161235Z AUTO 27006KT 10SM SCT070 20/18 A2986 RMK AO2 T02000181
Observed
Jun-16 @ 12:35 UTC
Wind
  • 270° at 6 KTS
Visibility
10 SM
Flight Rules
VFR
Cloud Levels
  • Scattered at 7,000' AGL
Temperature
20°C / 68°F
Dewpoint
18°C / 64°F
Humidity
88%
Altimeter
29.86" Hg
Pressure
1011.22 hPa
Previous

47 mins ago

KEZZ 161215Z AUTO 27007KT 10SM BKN070 20/18 A2985 RMK AO2 T01960179
Observed
Jun-16 @ 12:15 UTC
Wind
  • 270° at 7 KTS
Visibility
10 SM
Flight Rules
VFR
Cloud Levels
  • Broken at 7,000' AGL
Temperature
20°C / 68°F
Dewpoint
18°C / 64°F
Humidity
88%
Altimeter
29.85" Hg
Pressure
1010.82 hPa
Previous

1 hour ago

KEZZ 161155Z AUTO 26007KT 10SM SCT070 19/18 A2984 RMK AO2 T01910179 10217 20183
Observed
Jun-16 @ 11:55 UTC
Wind
  • 260° at 7 KTS
Visibility
10 SM
Flight Rules
VFR
Cloud Levels
  • Scattered at 7,000' AGL
Temperature
19°C / 66°F
Dewpoint
18°C / 64°F
Humidity
94%
Altimeter
29.84" Hg
Pressure
1010.52 hPa